Time;durP1;ratioP1;P1;durP2;ratioP2;P2;SDS_P1;SDS_P2;PMS_P1;PMS_P2;Temp;Humidity;BMP_temperature;BMP_pressure;BME280_temperature;BME280_humidity;BME280_pressure;Samples;Min_cycle;Max_cycle;Signal;HPM_P1;HPM_P2
2021/04/11 00:01:31;;;;;;;7.68;5.82;;;11.50;99.90;;;;;;5070450;28;20166;-76
2021/04/11 00:03:57;;;;;;;10.52;6.28;;;11.50;99.90;;;;;;5071561;28;20033;-76
2021/04/11 00:06:23;;;;;;;9.63;6.30;;;11.40;99.90;;;;;;5071810;28;20485;-75
2021/04/11 00:08:49;;;;;;;8.80;6.22;;;11.40;99.90;;;;;;5070113;28;20016;-75
2021/04/11 00:11:15;;;;;;;12.15;8.52;;;11.50;99.90;;;;;;5071521;28;20253;-76
2021/04/11 00:13:41;;;;;;;10.07;6.57;;;11.50;99.90;;;;;;5070343;28;20025;-76
2021/04/11 00:16:07;;;;;;;11.13;5.95;;;11.50;99.90;;;;;;5071431;28;20023;-76
2021/04/11 00:18:34;;;;;;;7.03;5.40;;;11.50;99.90;;;;;;5071369;28;20033;-76
2021/04/11 00:21:03;;;;;;;11.68;7.78;;;11.60;99.90;;;;;;5071561;28;20028;-76
2021/04/11 00:23:29;;;;;;;7.47;6.55;;;11.60;99.90;;;;;;5073934;28;20036;-76
2021/04/11 00:25:55;;;;;;;9.93;6.25;;;11.60;99.90;;;;;;5069882;28;20108;-76
2021/04/11 00:28:21;;;;;;;6.60;6.03;;;11.60;99.90;;;;;;5071318;28;20035;-76
2021/04/11 00:30:47;;;;;;;9.00;5.97;;;11.60;99.90;;;;;;5071502;28;20020;-76
2021/04/11 00:33:29;;;;;;;11.35;6.35;;;11.60;99.90;;;;;;5074772;28;20024;-76
2021/04/11 00:35:57;;;;;;;9.20;6.95;;;11.50;99.90;;;;;;5075827;28;20035;-77
2021/04/11 00:38:24;;;;;;;8.45;6.80;;;11.50;99.90;;;;;;5076499;28;20070;-76
2021/04/11 00:40:50;;;;;;;7.55;6.45;;;11.60;99.90;;;;;;5074972;28;20025;-76
2021/04/11 00:43:18;;;;;;;6.78;5.85;;;11.50;99.90;;;;;;5075707;28;20082;-76
2021/04/11 00:45:46;;;;;;;9.30;6.35;;;11.50;99.90;;;;;;5074719;28;20024;-76
2021/04/11 00:48:15;;;;;;;9.18;6.63;;;11.50;99.90;;;;;;5076095;28;20037;-76
2021/04/11 00:53:38;;;;;;;6.65;5.97;;;11.50;99.90;;;;;;5076457;28;20098;-76
2021/04/11 00:56:05;;;;;;;9.73;6.60;;;11.40;99.90;;;;;;5075109;28;20031;-76
2021/04/11 00:58:32;;;;;;;9.63;5.97;;;11.40;99.90;;;;;;5074671;28;20501;-76
2021/04/11 01:00:58;;;;;;;9.05;6.05;;;11.40;99.90;;;;;;5075920;28;20100;-76
2021/04/11 01:03:28;;;;;;;8.45;6.70;;;11.50;99.90;;;;;;5076142;28;20104;-76
2021/04/11 01:05:55;;;;;;;10.45;6.38;;;11.50;99.90;;;;;;5075699;28;20036;-77
2021/04/11 01:08:25;;;;;;;7.75;6.63;;;11.50;99.90;;;;;;5074168;28;20060;-76
2021/04/11 01:11:21;;;;;;;8.50;7.13;;;11.50;99.90;;;;;;5075678;28;20032;-76
2021/04/11 01:13:55;;;;;;;11.38;6.65;;;11.40;99.90;;;;;;5075769;28;20024;-77
2021/04/11 01:16:22;;;;;;;9.85;6.22;;;11.40;99.90;;;;;;5075843;28;20025;-77
2021/04/11 01:18:49;;;;;;;11.55;6.13;;;11.40;99.90;;;;;;5074172;28;20020;-76
2021/04/11 01:21:33;;;;;;;10.60;6.22;;;11.40;99.90;;;;;;5075638;28;20090;-77
2021/04/11 01:24:20;;;;;;;9.23;6.72;;;11.40;99.90;;;;;;5075190;28;20507;-77
2021/04/11 01:26:49;;;;;;;11.85;6.35;;;11.40;99.90;;;;;;5073833;28;20179;-77
2021/04/11 01:29:16;;;;;;;8.93;6.75;;;11.40;99.90;;;;;;5074018;28;20021;-77
2021/04/11 01:31:42;;;;;;;6.93;6.22;;;11.40;99.90;;;;;;5074214;28;20150;-77
2021/04/11 01:34:09;;;;;;;8.55;6.38;;;11.40;99.90;;;;;;5075033;28;20024;-77
2021/04/11 01:36:40;;;;;;;7.72;6.68;;;11.40;99.90;;;;;;5075274;28;20025;-77
2021/04/11 01:39:14;;;;;;;7.88;6.35;;;11.40;99.90;;;;;;5075060;28;20149;-77
2021/04/11 01:41:42;;;;;;;11.05;6.57;;;11.40;99.90;;;;;;5074234;28;20044;-78
2021/04/11 01:44:11;;;;;;;10.27;6.80;;;11.40;99.90;;;;;;5074618;28;20021;-78
2021/04/11 01:46:37;;;;;;;10.38;7.28;;;11.30;99.90;;;;;;5074438;28;20028;-78
2021/04/11 01:49:04;;;;;;;8.52;7.07;;;11.30;99.90;;;;;;5075444;28;20052;-78
2021/04/11 01:51:34;;;;;;;8.00;6.88;;;11.40;99.90;;;;;;5075043;28;20394;-77
2021/04/11 01:54:04;;;;;;;10.18;6.78;;;11.40;99.90;;;;;;5074350;28;20406;-78
2021/04/11 01:56:30;;;;;;;10.38;7.85;;;11.40;99.90;;;;;;5074973;28;20218;-78
2021/04/11 01:58:55;;;;;;;8.02;7.25;;;11.40;99.90;;;;;;5060492;28;20138;-78
2021/04/11 02:01:21;;;;;;;9.85;7.45;;;11.40;99.90;;;;;;5055127;28;20424;-78
2021/04/11 02:03:52;;;;;;;10.40;7.72;;;11.30;99.90;;;;;;5055160;28;20044;-78
2021/04/11 02:06:19;;;;;;;9.25;7.50;;;11.40;99.90;;;;;;5053833;28;20467;-78
2021/04/11 02:08:47;;;;;;;8.63;7.10;;;11.40;99.90;;;;;;5054744;28;20017;-78
2021/04/11 02:11:14;;;;;;;7.50;6.68;;;11.40;99.90;;;;;;5053998;28;20032;-78
2021/04/11 02:13:40;;;;;;;7.65;6.80;;;11.40;99.90;;;;;;5054578;28;20121;-77
2021/04/11 02:16:08;;;;;;;9.25;7.70;;;11.40;99.90;;;;;;5053251;28;20029;-78
2021/04/11 02:18:35;;;;;;;7.60;6.35;;;11.40;99.90;;;;;;5054291;28;20033;-78
2021/04/11 02:21:04;;;;;;;8.77;7.82;;;11.40;99.90;;;;;;5052932;28;20087;-78
2021/04/11 02:23:31;;;;;;;9.07;7.10;;;11.40;99.90;;;;;;5078840;28;20040;-79
2021/04/11 02:25:57;;;;;;;9.35;7.30;;;11.40;99.90;;;;;;5093553;28;20024;-78
2021/04/11 02:28:31;;;;;;;13.32;7.55;;;11.40;99.90;;;;;;5083959;28;20123;-78
2021/04/11 02:31:18;;;;;;;8.68;7.78;;;11.40;99.90;;;;;;5072737;28;20052;-77
2021/04/11 02:34:01;;;;;;;8.20;6.70;;;11.40;99.90;;;;;;5072821;28;20029;-77
2021/04/11 02:36:28;;;;;;;6.53;5.47;;;11.40;99.90;;;;;;5072445;28;20115;-77
2021/04/11 02:38:56;;;;;;;5.93;5.20;;;11.30;99.90;;;;;;5074157;28;20024;-77
2021/04/11 02:41:24;;;;;;;6.47;5.03;;;11.30;99.90;;;;;;5072947;28;20027;-77
2021/04/11 02:43:50;;;;;;;4.97;3.92;;;11.30;99.90;;;;;;5072448;28;20117;-77
2021/04/11 02:46:17;;;;;;;5.50;4.90;;;11.20;99.90;;;;;;5074511;28;20445;-77
2021/04/11 02:48:43;;;;;;;4.50;4.05;;;11.20;99.90;;;;;;5074246;28;20020;-77
2021/04/11 02:51:10;;;;;;;4.43;4.03;;;11.10;99.90;;;;;;5074356;28;20111;-78
2021/04/11 02:53:37;;;;;;;4.32;3.97;;;11.10;99.90;;;;;;5074394;28;20033;-77
2021/04/11 02:56:04;;;;;;;5.15;4.38;;;11.10;99.90;;;;;;5072793;28;20047;-78
2021/04/11 02:58:30;;;;;;;4.97;4.03;;;11.10;99.90;;;;;;5073950;28;20561;-78
2021/04/11 03:01:01;;;;;;;7.55;4.90;;;11.10;99.90;;;;;;5072808;28;20056;-78
2021/04/11 03:03:28;;;;;;;7.30;4.57;;;11.10;99.90;;;;;;5072848;28;20021;-78
2021/04/11 03:05:57;;;;;;;5.25;4.85;;;11.10;99.90;;;;;;5074150;28;20086;-78
2021/04/11 03:08:28;;;;;;;4.28;3.45;;;11.10;99.90;;;;;;5072724;28;20501;-78
2021/04/11 03:11:09;;;;;;;2.83;2.60;;;11.20;99.90;;;;;;5072688;28;20048;-78
2021/04/11 03:13:36;;;;;;;2.75;2.55;;;11.20;99.90;;;;;;5072464;28;20060;-78
2021/04/11 03:16:02;;;;;;;2.92;2.72;;;11.10;99.90;;;;;;5073989;28;20028;-78
2021/04/11 03:18:29;;;;;;;2.83;2.63;;;11.10;99.90;;;;;;5106565;27;20111;-78
2021/04/11 03:20:57;;;;;;;3.17;2.85;;;11.00;99.90;;;;;;5072631;28;20131;-78
2021/04/11 03:23:23;;;;;;;2.47;2.28;;;11.00;99.90;;;;;;5072312;28;20048;-78
2021/04/11 03:25:56;;;;;;;3.63;2.83;;;11.00;99.90;;;;;;5073699;28;20024;-78
2021/04/11 03:28:32;;;;;;;2.90;2.65;;;11.00;99.90;;;;;;5072337;28;20025;-78
2021/04/11 03:31:11;;;;;;;3.13;2.92;;;11.00;99.90;;;;;;5072431;28;20028;-78
2021/04/11 03:33:40;;;;;;;3.90;3.08;;;11.10;99.90;;;;;;5072114;28;20068;-78
2021/04/11 03:36:08;;;;;;;3.83;3.53;;;11.10;99.90;;;;;;5072047;28;20024;-78
2021/04/11 03:38:35;;;;;;;5.45;3.30;;;11.10;99.90;;;;;;5072601;28;20111;-77
2021/04/11 03:41:01;;;;;;;3.47;3.20;;;11.10;99.90;;;;;;5072386;28;20028;-78
2021/04/11 03:43:36;;;;;;;3.30;3.00;;;11.10;99.90;;;;;;5071936;28;20025;-78
2021/04/11 03:46:10;;;;;;;3.88;2.70;;;11.10;99.90;;;;;;5072806;28;20025;-78
2021/04/11 03:48:43;;;;;;;3.25;3.00;;;11.10;99.90;;;;;;5072809;28;20032;-78
2021/04/11 03:51:19;;;;;;;4.38;2.60;;;11.20;99.90;;;;;;5071740;28;20025;-78
2021/04/11 03:53:50;;;;;;;2.78;2.60;;;11.10;99.90;;;;;;5072892;28;20107;-78
2021/04/11 03:56:19;;;;;;;2.55;2.30;;;11.10;99.90;;;;;;5071690;28;20119;-78
2021/04/11 03:58:53;;;;;;;2.75;2.35;;;11.10;99.90;;;;;;5061019;28;20379;-78
2021/04/11 04:01:23;;;;;;;3.05;2.72;;;11.10;99.90;;;;;;5052960;28;20616;-78
2021/04/11 04:03:51;;;;;;;3.03;2.83;;;11.10;99.90;;;;;;5053276;28;20375;-78
2021/04/11 04:06:25;;;;;;;3.85;2.65;;;11.00;99.90;;;;;;5052367;28;20075;-78
2021/04/11 04:08:51;;;;;;;5.35;3.17;;;11.00;99.90;;;;;;5052938;28;20352;-78
2021/04/11 04:11:26;;;;;;;3.55;2.45;;;11.00;99.90;;;;;;5051426;28;20258;-78
2021/04/11 04:14:01;;;;;;;3.03;2.65;;;10.90;99.90;;;;;;5051146;28;20024;-78
2021/04/11 04:16:59;;;;;;;3.70;2.45;;;10.90;99.90;;;;;;5051294;28;20430;-78
2021/04/11 04:19:50;;;;;;;2.42;1.95;;;10.80;99.90;;;;;;5049959;28;20473;-77
2021/04/11 04:22:40;;;;;;;1.17;1.17;;;10.80;99.90;;;;;;5052560;28;20542;-77
2021/04/11 04:25:42;;;;;;;1.95;1.80;;;10.70;99.90;;;;;;5052600;28;20406;-77
2021/04/11 04:28:20;;;;;;;2.97;2.60;;;10.70;99.90;;;;;;5057874;28;20029;-77
2021/04/11 04:30:53;;;;;;;1.95;1.70;;;10.70;99.90;;;;;;5071422;28;20028;-77
2021/04/11 04:33:31;;;;;;;2.83;1.95;;;10.70;99.90;;;;;;5071482;28;20052;-77
2021/04/11 04:36:08;;;;;;;1.67;1.58;;;10.70;99.90;;;;;;5071445;28;20021;-78
2021/04/11 04:38:40;;;;;;;2.95;1.83;;;10.70;99.90;;;;;;5070841;28;20382;-78
2021/04/11 04:41:10;;;;;;;2.05;1.95;;;10.70;99.90;;;;;;5071372;28;20047;-78
2021/04/11 04:43:58;;;;;;;4.68;1.95;;;10.70;99.90;;;;;;5071947;28;20467;-78
2021/04/11 04:47:02;;;;;;;1.15;1.10;;;10.70;99.90;;;;;;5072095;28;20017;-78
2021/04/11 04:49:47;;;;;;;1.60;1.17;;;10.60;99.90;;;;;;5070513;28;20108;-78
2021/04/11 04:52:31;;;;;;;1.60;1.48;;;10.70;99.90;;;;;;5071942;28;20050;-78
2021/04/11 04:55:00;;;;;;;1.95;1.48;;;10.70;99.90;;;;;;5071789;28;20384;-78
2021/04/11 04:57:25;;;;;;;2.17;1.30;;;10.60;99.90;;;;;;5072068;28;20052;-78
2021/04/11 04:59:57;;;;;;;2.75;1.70;;;10.60;99.90;;;;;;5070351;28;20479;-78
2021/04/11 05:02:26;;;;;;;1.58;1.48;;;10.60;99.90;;;;;;5071788;28;20032;-78
2021/04/11 05:04:59;;;;;;;1.67;1.23;;;10.50;99.90;;;;;;5070514;28;20617;-78
2021/04/11 05:07:28;;;;;;;2.05;1.50;;;10.50;99.90;;;;;;5071739;28;20086;-78
2021/04/11 05:10:12;;;;;;;2.70;1.02;;;10.50;99.90;;;;;;5070560;28;20028;-78
2021/04/11 05:13:01;;;;;;;1.30;1.25;;;10.50;99.90;;;;;;5070409;28;20021;-78
2021/04/11 05:15:33;;;;;;;1.50;1.40;;;10.50;99.90;;;;;;5070468;28;20032;-78
2021/04/11 05:18:05;;;;;;;4.53;1.55;;;10.50;99.90;;;;;;5071508;28;20024;-78
2021/04/11 05:20:35;;;;;;;1.13;1.10;;;10.50;99.90;;;;;;5075271;28;20044;-78
2021/04/11 05:23:18;;;;;;;1.48;1.02;;;10.50;99.90;;;;;;5075596;28;20031;-78
2021/04/11 05:26:10;;;;;;;3.00;1.13;;;10.40;99.90;;;;;;5074493;28;20032;-78
2021/04/11 05:28:47;;;;;;;1.58;1.00;;;10.40;99.90;;;;;;5073929;28;20043;-78
2021/04/11 05:31:20;;;;;;;0.90;0.90;;;10.40;99.90;;;;;;5073862;28;20040;-78
2021/04/11 05:33:49;;;;;;;1.48;1.08;;;10.40;99.90;;;;;;5073890;28;20072;-78
2021/04/11 05:36:33;;;;;;;2.67;0.90;;;10.40;99.90;;;;;;5073698;28;20487;-78
2021/04/11 05:39:11;;;;;;;0.75;0.75;;;10.40;99.90;;;;;;5075010;28;20028;-78
2021/04/11 05:41:46;;;;;;;1.48;0.90;;;10.40;99.90;;;;;;5075099;28;20048;-78
2021/04/11 05:44:17;;;;;;;0.73;0.73;;;10.30;99.90;;;;;;5073602;28;20020;-78
2021/04/11 05:46:54;;;;;;;0.80;0.70;;;10.30;99.90;;;;;;5075008;28;20025;-78
2021/04/11 05:49:36;;;;;;;3.83;0.60;;;10.30;99.90;;;;;;5073740;28;20391;-79
2021/04/11 05:52:09;;;;;;;2.85;0.50;;;10.30;99.90;;;;;;5073663;28;20034;-79
2021/04/11 05:54:47;;;;;;;1.13;0.30;;;10.20;99.90;;;;;;5073875;28;20020;-79
2021/04/11 05:57:25;;;;;;;0.68;0.40;;;10.20;99.90;;;;;;5073717;28;20021;-79
2021/04/11 06:00:04;;;;;;;1.75;0.32;;;10.20;99.90;;;;;;5053483;28;20021;-79
2021/04/11 06:02:50;;;;;;;1.58;0.60;;;10.20;99.90;;;;;;5069945;28;20057;-79
2021/04/11 06:05:28;;;;;;;1.48;0.55;;;10.20;99.90;;;;;;5069841;28;20467;-79
2021/04/11 06:08:15;;;;;;;1.08;0.45;;;10.20;99.90;;;;;;5054154;28;20479;-79
2021/04/11 06:10:48;;;;;;;0.30;0.30;;;10.20;99.90;;;;;;5053136;28;20029;-79
2021/04/11 06:13:51;;;;;;;1.27;0.40;;;10.20;99.90;;;;;;5053200;28;20029;-79
2021/04/11 06:16:20;;;;;;;0.60;0.40;;;10.20;99.90;;;;;;5069675;28;20082;-79
2021/04/11 06:18:52;;;;;;;1.25;0.47;;;10.20;99.90;;;;;;5074530;28;20067;-79
2021/04/11 06:21:38;;;;;;;0.38;0.35;;;10.20;99.90;;;;;;5073278;28;20024;-80
2021/04/11 06:24:12;;;;;;;0.73;0.50;;;10.20;99.90;;;;;;5052722;28;20048;-79
2021/04/11 06:26:46;;;;;;;0.35;0.35;;;10.20;99.90;;;;;;5073450;28;20111;-79
2021/04/11 06:29:24;;;;;;;1.05;0.50;;;10.20;99.90;;;;;;5073165;28;20070;-80
2021/04/11 06:32:12;;;;;;;1.55;0.30;;;10.30;99.90;;;;;;5073561;28;20104;-79
2021/04/11 06:34:48;;;;;;;0.63;0.50;;;10.30;99.90;;;;;;5067020;28;20041;-79
2021/04/11 06:37:21;;;;;;;0.30;0.30;;;10.30;99.90;;;;;;5073297;28;20047;-79
2021/04/11 06:39:48;;;;;;;0.50;0.50;;;10.30;99.90;;;;;;5073175;28;20040;-79
2021/04/11 06:42:34;;;;;;;1.52;0.73;;;10.30;99.90;;;;;;5074492;28;20025;-79
2021/04/11 06:45:06;;;;;;;1.80;0.85;;;10.30;99.90;;;;;;5074306;28;20509;-79
2021/04/11 06:47:50;;;;;;;2.22;0.50;;;10.30;99.90;;;;;;5073211;28;20067;-79
2021/04/11 06:50:32;;;;;;;0.52;0.52;;;10.30;99.90;;;;;;5072991;28;20054;-79
2021/04/11 06:53:37;;;;;;;0.73;0.50;;;10.30;99.90;;;;;;5074042;28;20472;-79
2021/04/11 06:56:09;;;;;;;1.00;1.00;;;10.30;99.90;;;;;;5057317;28;20031;-79
2021/04/11 06:58:59;;;;;;;3.50;1.42;;;10.30;99.90;;;;;;5072697;28;20028;-79
2021/04/11 07:01:55;;;;;;;1.00;0.60;;;10.30;99.90;;;;;;5073678;28;20043;-79
2021/04/11 07:04:29;;;;;;;1.05;0.70;;;10.40;99.90;;;;;;5072594;28;20025;-79
2021/04/11 07:07:32;;;;;;;1.63;0.70;;;10.40;99.90;;;;;;5071988;28;20028;-79
2021/04/11 07:10:29;;;;;;;0.55;0.40;;;10.40;99.90;;;;;;5072198;28;20036;-79
2021/04/11 07:13:06;;;;;;;2.45;0.70;;;10.50;99.90;;;;;;5070891;28;20135;-79
2021/04/11 07:16:10;;;;;;;0.50;0.50;;;10.50;99.90;;;;;;5073202;28;20429;-79
2021/04/11 07:18:54;;;;;;;0.50;0.50;;;10.60;99.90;;;;;;5071880;28;20040;-78
2021/04/11 07:21:38;;;;;;;0.80;0.50;;;10.60;99.90;;;;;;5071950;28;20035;-79
2021/04/11 07:24:23;;;;;;;1.00;0.80;;;10.60;99.90;;;;;;5072666;28;20045;-79
2021/04/11 07:27:24;;;;;;;1.60;0.80;;;10.70;99.90;;;;;;5073278;28;20031;-79
2021/04/11 07:30:15;;;;;;;1.50;0.93;;;10.80;99.90;;;;;;5069322;28;20566;-79
2021/04/11 07:32:47;;;;;;;1.95;0.70;;;10.80;99.90;;;;;;5072931;28;20028;-79
2021/04/11 07:35:38;;;;;;;1.25;0.88;;;10.90;99.90;;;;;;5071466;28;20028;-79
2021/04/11 07:38:07;;;;;;;0.50;0.50;;;10.90;99.90;;;;;;5072603;28;20117;-79
2021/04/11 07:40:39;;;;;;;1.23;0.77;;;10.90;99.90;;;;;;5071848;28;20031;-78
2021/04/11 07:43:13;;;;;;;2.00;0.90;;;11.00;99.90;;;;;;5071795;28;20035;-79
2021/04/11 07:46:21;;;;;;;1.08;0.80;;;11.00;99.90;;;;;;5072797;28;20035;-79
2021/04/11 07:49:17;;;;;;;1.10;1.10;;;11.10;99.90;;;;;;5072687;28;20063;-79
2021/04/11 07:51:47;;;;;;;1.75;1.20;;;11.10;99.90;;;;;;5071195;28;20089;-79
2021/04/11 07:54:33;;;;;;;1.45;1.30;;;11.10;99.90;;;;;;5071737;28;20031;-79
2021/04/11 07:57:26;;;;;;;3.22;0.88;;;11.10;99.90;;;;;;5071732;28;20028;-79
2021/04/11 08:00:32;;;;;;;1.80;1.25;;;11.10;99.90;;;;;;5052993;28;20024;-80
2021/04/11 08:03:54;;;;;;;1.33;0.85;;;11.10;99.90;;;;;;5053076;28;20033;-79
2021/04/11 08:06:50;;;;;;;1.07;0.70;;;11.10;99.90;;;;;;5014360;28;20025;-79
2021/04/11 08:09:19;;;;;;;2.00;0.90;;;11.10;99.90;;;;;;5030935;28;20048;-79
2021/04/11 08:12:19;;;;;;;2.45;1.25;;;11.10;99.90;;;;;;5060930;28;20413;-78
2021/04/11 08:15:17;;;;;;;2.15;0.98;;;11.10;99.90;;;;;;5071682;28;20025;-79
2021/04/11 08:18:10;;;;;;;1.48;0.85;;;11.10;99.90;;;;;;5072609;28;20121;-79
2021/04/11 08:21:09;;;;;;;2.38;1.10;;;11.20;99.90;;;;;;5059678;28;20421;-79
2021/04/11 08:23:43;;;;;;;1.33;1.00;;;11.20;99.90;;;;;;5072466;28;20044;-79
2021/04/11 08:26:46;;;;;;;2.88;1.40;;;11.20;99.90;;;;;;5071471;28;20050;-79
2021/04/11 08:29:27;;;;;;;2.28;1.48;;;11.20;99.90;;;;;;5072768;28;20032;-79
2021/04/11 08:32:10;;;;;;;3.65;1.50;;;11.20;99.90;;;;;;5071566;28;20043;-79
2021/04/11 08:34:54;;;;;;;3.15;1.55;;;11.30;99.90;;;;;;5072803;28;20046;-79
2021/04/11 08:38:04;;;;;;;2.13;2.03;;;11.40;99.90;;;;;;5052478;28;20395;-79
2021/04/11 08:40:48;;;;;;;2.08;1.70;;;11.40;99.90;;;;;;5030210;28;20061;-79
2021/04/11 08:43:57;;;;;;;4.22;2.22;;;11.40;99.90;;;;;;5059531;28;20500;-79
2021/04/11 08:46:56;;;;;;;2.30;2.03;;;11.40;99.90;;;;;;5038426;28;20506;-79
2021/04/11 08:49:24;;;;;;;2.22;1.80;;;11.40;99.90;;;;;;5070792;28;20048;-78
2021/04/11 08:52:07;;;;;;;3.22;2.50;;;11.40;99.90;;;;;;5071095;28;20025;-78
2021/04/11 08:55:16;;;;;;;3.50;3.20;;;11.40;99.90;;;;;;5075734;28;20029;-78
2021/04/11 08:58:19;;;;;;;4.53;2.45;;;11.40;99.90;;;;;;5066596;28;20039;-78
2021/04/11 09:00:48;;;;;;;3.45;2.72;;;11.40;99.90;;;;;;5075662;28;20046;-78
2021/04/11 09:03:37;;;;;;;4.15;3.00;;;11.40;99.90;;;;;;5074118;28;20478;-78
2021/04/11 09:06:28;;;;;;;2.80;2.60;;;11.30;99.90;;;;;;5075244;28;20082;-78
2021/04/11 09:09:12;;;;;;;2.35;2.25;;;11.30;99.90;;;;;;5075645;28;20036;-78
2021/04/11 09:11:55;;;;;;;1.90;1.75;;;11.40;99.90;;;;;;5076374;28;20063;-78
2021/04/11 09:14:45;;;;;;;2.22;2.03;;;11.30;99.90;;;;;;5072912;28;20066;-78
2021/04/11 09:17:32;;;;;;;3.33;2.30;;;11.30;99.90;;;;;;5073488;28;20708;-78
2021/04/11 09:20:17;;;;;;;2.60;2.40;;;11.30;99.90;;;;;;5072943;28;20125;-78
2021/04/11 09:23:02;;;;;;;2.20;2.00;;;11.30;99.90;;;;;;5072245;28;20035;-78
2021/04/11 09:25:35;;;;;;;2.30;2.10;;;11.30;99.90;;;;;;5053513;28;20029;-78
2021/04/11 09:28:25;;;;;;;2.45;2.25;;;11.30;99.90;;;;;;5058946;28;20024;-78
2021/04/11 09:31:09;;;;;;;2.95;2.45;;;11.40;99.90;;;;;;5073752;28;20046;-78
2021/04/11 09:34:06;;;;;;;2.65;2.50;;;11.40;99.90;;;;;;5070573;28;20028;-78
2021/04/11 09:36:59;;;;;;;2.20;2.10;;;11.40;99.90;;;;;;5066814;28;20641;-83
2021/04/11 09:39:33;;;;;;;1.67;1.48;;;11.40;99.90;;;;;;5068515;28;20033;-78
2021/04/11 09:42:17;;;;;;;1.80;1.70;;;11.40;99.90;;;;;;5066522;28;20434;-82
2021/04/11 09:45:01;;;;;;;2.30;1.52;;;11.40;99.90;;;;;;5067140;28;20037;-78
2021/04/11 09:47:47;;;;;;;1.95;1.85;;;11.40;99.90;;;;;;5067489;28;20059;-78
2021/04/11 09:51:03;;;;;;;1.92;1.83;;;11.30;99.90;;;;;;5069558;28;20024;-78
2021/04/11 09:54:05;;;;;;;3.92;2.03;;;11.30;99.90;;;;;;5026601;28;20037;-78
2021/04/11 09:56:48;;;;;;;3.00;2.70;;;11.30;99.90;;;;;;5027465;28;20573;-77
2021/04/11 10:00:08;;;;;;;3.00;2.80;;;11.40;99.90;;;;;;5064573;28;20447;-78
2021/04/11 10:02:53;;;;;;;3.42;2.63;;;11.30;99.90;;;;;;5027682;28;20033;-77
2021/04/11 10:05:36;;;;;;;2.90;2.70;;;11.30;99.90;;;;;;5082850;28;20771;-78
2021/04/11 10:08:12;;;;;;;2.55;2.35;;;11.30;99.90;;;;;;5070463;28;20029;-77
2021/04/11 10:10:53;;;;;;;1.77;1.63;;;11.30;99.90;;;;;;5072063;28;20042;-77
2021/04/11 10:13:35;;;;;;;2.03;1.65;;;11.30;99.90;;;;;;5078605;28;20031;-77
2021/04/11 10:16:13;;;;;;;2.95;2.70;;;11.30;99.90;;;;;;5066192;28;20021;-77
2021/04/11 10:18:57;;;;;;;6.43;3.67;;;11.30;99.90;;;;;;5069563;28;20075;-78
2021/04/11 10:21:50;;;;;;;5.80;3.25;;;11.20;99.90;;;;;;5061394;28;20032;-78
2021/04/11 10:24:45;;;;;;;2.05;1.85;;;11.30;99.90;;;;;;5067420;28;20076;-78
2021/04/11 10:27:35;;;;;;;1.80;1.67;;;11.20;99.90;;;;;;5065453;28;20111;-77
2021/04/11 10:30:01;;;;;;;3.33;1.15;;;11.20;99.90;;;;;;5069721;28;20706;-77
2021/04/11 10:32:52;;;;;;;1.00;1.00;;;11.20;99.90;;;;;;5063443;28;20027;-77
2021/04/11 10:35:43;;;;;;;1.33;1.15;;;11.20;99.90;;;;;;5068224;28;20622;-78
2021/04/11 10:38:32;;;;;;;1.98;0.90;;;11.10;99.90;;;;;;5022869;28;20750;-78
2021/04/11 10:41:16;;;;;;;5.20;1.67;;;11.10;99.90;;;;;;5062016;28;20020;-78
2021/04/11 10:44:09;;;;;;;1.33;1.23;;;11.10;99.90;;;;;;5070180;28;20023;-77
2021/04/11 10:47:06;;;;;;;2.38;2.15;;;11.10;99.90;;;;;;5056539;28;20067;-78
2021/04/11 10:49:47;;;;;;;1.70;1.60;;;11.20;99.90;;;;;;5083090;28;20056;-77
2021/04/11 10:52:43;;;;;;;2.50;1.85;;;11.20;99.90;;;;;;5069670;28;20095;-77
2021/04/11 10:55:12;;;;;;;2.13;1.40;;;11.20;99.90;;;;;;5064929;28;20043;-78
2021/04/11 10:57:58;;;;;;;3.72;1.83;;;11.20;99.90;;;;;;5071722;28;20410;-78
2021/04/11 11:00:57;;;;;;;1.58;1.48;;;11.30;99.90;;;;;;5070121;28;20036;-78
2021/04/11 11:03:54;;;;;;;1.92;1.75;;;11.30;99.90;;;;;;5048331;28;20029;-77
2021/04/11 11:06:52;;;;;;;1.98;1.80;;;11.30;99.90;;;;;;5067647;28;21002;-77
2021/04/11 11:09:23;;;;;;;2.10;1.90;;;11.30;99.90;;;;;;5070260;28;20035;-78
2021/04/11 11:12:00;;;;;;;3.70;3.40;;;11.30;99.90;;;;;;5068889;28;20543;-76
2021/04/11 11:14:48;;;;;;;4.95;3.25;;;11.40;99.90;;;;;;5071094;28;20032;-76
2021/04/11 11:17:38;;;;;;;3.90;3.50;;;11.40;99.90;;;;;;5071553;28;20371;-77
2021/04/11 11:20:09;;;;;;;4.55;2.53;;;11.40;99.90;;;;;;5073322;28;20056;-77
2021/04/11 11:22:50;;;;;;;2.13;1.90;;;11.40;99.90;;;;;;5070456;28;20078;-75
2021/04/11 11:25:36;;;;;;;3.47;3.10;;;11.40;99.90;;;;;;5079016;28;20031;-76
2021/04/11 11:28:13;;;;;;;3.22;3.03;;;11.40;99.90;;;;;;5069974;28;20525;-75
2021/04/11 11:30:51;;;;;;;2.85;2.33;;;11.40;99.90;;;;;;5071406;28;20024;-75
2021/04/11 11:33:21;;;;;;;1.92;1.83;;;11.40;99.90;;;;;;5071662;28;20639;-75
2021/04/11 11:36:02;;;;;;;1.85;1.75;;;11.30;99.90;;;;;;5071032;28;20470;-75
2021/04/11 11:38:46;;;;;;;2.75;2.05;;;11.30;99.90;;;;;;5070522;28;20037;-75
2021/04/11 11:41:34;;;;;;;2.15;2.03;;;11.30;99.90;;;;;;5070084;28;20033;-76
2021/04/11 11:44:05;;;;;;;1.30;1.20;;;11.30;99.90;;;;;;5069592;28;20016;-76
2021/04/11 11:46:52;;;;;;;3.72;2.10;;;11.30;99.90;;;;;;5071312;28;20027;-75
2021/04/11 11:49:27;;;;;;;2.30;2.10;;;11.30;99.90;;;;;;5069088;28;20169;-76
2021/04/11 11:52:14;;;;;;;2.33;1.70;;;11.20;99.90;;;;;;5069459;28;20048;-75
2021/04/11 11:54:47;;;;;;;3.63;1.48;;;11.20;99.90;;;;;;5070320;28;20528;-75
2021/04/11 11:57:25;;;;;;;1.52;1.23;;;11.20;99.90;;;;;;5070522;28;20521;-76
2021/04/11 12:00:15;;;;;;;2.88;2.00;;;11.20;99.90;;;;;;5068867;28;20023;-76
2021/04/11 12:03:10;;;;;;;2.03;1.10;;;11.20;99.90;;;;;;5069753;28;20105;-75
2021/04/11 12:05:46;;;;;;;1.98;1.08;;;11.20;99.90;;;;;;5049099;28;20024;-76
2021/04/11 12:08:41;;;;;;;0.95;0.93;;;11.20;99.90;;;;;;5067390;28;20056;-75
2021/04/11 12:11:10;;;;;;;1.92;1.40;;;11.20;99.90;;;;;;5064490;28;20098;-75
2021/04/11 12:13:45;;;;;;;1.67;1.58;;;11.20;99.90;;;;;;5067698;28;20037;-75
2021/04/11 12:16:22;;;;;;;3.03;2.67;;;11.20;99.90;;;;;;5066914;28;20033;-77
2021/04/11 12:19:06;;;;;;;2.83;2.17;;;11.30;99.90;;;;;;5066616;28;20040;-75
2021/04/11 12:21:34;;;;;;;2.80;1.77;;;11.40;99.90;;;;;;5068015;28;20021;-75
2021/04/11 12:24:20;;;;;;;3.80;1.75;;;11.40;99.90;;;;;;5066473;28;20384;-75
2021/04/11 12:26:49;;;;;;;2.72;2.30;;;11.50;99.90;;;;;;5064682;28;20024;-75
2021/04/11 12:29:19;;;;;;;4.47;2.80;;;11.50;99.90;;;;;;5067089;28;20478;-75
2021/04/11 12:32:11;;;;;;;4.45;4.03;;;11.50;99.90;;;;;;5069763;28;20021;-75
2021/04/11 12:34:45;;;;;;;2.83;1.88;;;11.60;99.90;;;;;;5068098;28;20027;-75
2021/04/11 12:37:25;;;;;;;1.60;1.42;;;11.60;99.90;;;;;;5070709;28;20028;-75
2021/04/11 12:40:09;;;;;;;1.58;1.48;;;11.60;99.90;;;;;;5066301;28;20021;-75
2021/04/11 12:42:57;;;;;;;1.90;1.80;;;11.60;99.90;;;;;;5068055;28;20388;-75
2021/04/11 12:46:05;;;;;;;1.60;1.50;;;11.60;99.90;;;;;;5069330;28;20020;-76
2021/04/11 12:48:41;;;;;;;1.55;1.30;;;11.60;99.90;;;;;;5057626;28;20086;-75
2021/04/11 12:51:09;;;;;;;0.90;0.90;;;11.70;99.90;;;;;;5066651;28;20146;-77
2021/04/11 12:53:53;;;;;;;1.65;1.55;;;11.70;99.90;;;;;;5068318;28;20070;-77
2021/04/11 12:56:21;;;;;;;1.80;1.70;;;11.70;99.90;;;;;;5068660;28;20107;-78
2021/04/11 12:59:21;;;;;;;2.15;1.98;;;11.80;99.90;;;;;;5067856;28;20106;-78
2021/04/11 13:01:51;;;;;;;2.97;2.60;;;11.70;99.90;;;;;;5042633;28;20041;-76
2021/04/11 13:04:40;;;;;;;7.10;3.03;;;11.80;99.90;;;;;;5068335;28;20036;-74
2021/04/11 13:07:15;;;;;;;3.25;3.05;;;11.80;99.90;;;;;;5068723;28;20070;-74
2021/04/11 13:09:44;;;;;;;3.35;2.85;;;11.80;99.90;;;;;;5069583;28;20021;-78
2021/04/11 13:12:40;;;;;;;4.82;3.22;;;11.80;99.90;;;;;;5070132;28;20028;-79
2021/04/11 13:15:09;;;;;;;2.70;2.60;;;11.90;99.90;;;;;;5070428;28;20382;-78
2021/04/11 13:18:01;;;;;;;3.08;2.88;;;11.90;99.90;;;;;;5059908;28;20028;-78
2021/04/11 13:21:08;;;;;;;2.10;2.00;;;11.90;99.90;;;;;;5064371;28;20024;-78
2021/04/11 13:24:03;;;;;;;1.90;1.80;;;11.90;99.90;;;;;;5049988;28;20055;-78
2021/04/11 13:27:02;;;;;;;1.50;1.40;;;11.80;99.90;;;;;;5063391;28;20066;-78
2021/04/11 13:29:40;;;;;;;1.85;1.75;;;11.80;99.90;;;;;;5063173;28;20055;-78
2021/04/11 13:32:26;;;;;;;2.00;1.75;;;11.90;99.90;;;;;;5064695;28;20394;-79
2021/04/11 13:35:25;;;;;;;1.33;1.30;;;11.90;99.90;;;;;;5065360;28;20119;-78
2021/04/11 13:37:59;;;;;;;2.85;2.30;;;11.90;99.90;;;;;;5067581;28;20025;-78
2021/04/11 13:40:30;;;;;;;1.70;1.60;;;12.00;99.90;;;;;;5068407;28;20021;-79
2021/04/11 13:43:21;;;;;;;1.73;1.63;;;12.00;99.90;;;;;;5070007;28;20021;-78
2021/04/11 13:45:52;;;;;;;2.15;2.05;;;12.00;99.90;;;;;;5069986;28;20032;-78
2021/04/11 13:48:55;;;;;;;1.83;1.73;;;12.00;99.90;;;;;;5070280;28;20025;-78
2021/04/11 13:51:30;;;;;;;2.10;2.00;;;12.10;99.90;;;;;;5069016;28;20497;-78